createdAt,value
2019-01-16T00:02:30.865Z,99.90
2019-01-16T00:05:19.054Z,99.90
2019-01-16T00:08:03.840Z,99.90
2019-01-16T00:10:51.778Z,99.90
2019-01-16T00:13:31.143Z,99.90
2019-01-16T00:16:11.166Z,99.90
2019-01-16T00:18:54.972Z,99.90
2019-01-16T00:21:42.675Z,99.90
2019-01-16T00:24:24.663Z,99.90
2019-01-16T00:27:26.336Z,99.90
2019-01-16T00:30:30.409Z,99.90
2019-01-16T00:33:13.967Z,99.90
2019-01-16T00:36:18.469Z,99.90
2019-01-16T00:39:25.018Z,99.90
2019-01-16T00:42:14.301Z,99.90
2019-01-16T00:45:02.469Z,99.90
2019-01-16T00:47:42.341Z,99.90
2019-01-16T00:50:30.317Z,99.90
2019-01-16T00:53:16.101Z,99.90
2019-01-16T00:56:00.959Z,99.90
2019-01-16T00:58:49.886Z,99.90
2019-01-16T01:01:29.110Z,99.90
2019-01-16T01:04:27.243Z,99.90
2019-01-16T01:07:25.707Z,99.90
2019-01-16T01:10:08.098Z,99.90
2019-01-16T01:12:54.645Z,99.90
2019-01-16T01:15:46.550Z,99.90
2019-01-16T01:18:40.663Z,99.90
2019-01-16T01:21:21.210Z,99.90
2019-01-16T01:24:25.997Z,99.90
2019-01-16T01:27:08.274Z,99.90
2019-01-16T01:29:45.682Z,99.90
2019-01-16T01:32:34.543Z,99.90
2019-01-16T01:35:22.287Z,99.90
2019-01-16T01:38:08.511Z,99.90
2019-01-16T01:41:02.938Z,99.90
2019-01-16T01:43:51.970Z,99.90
2019-01-16T01:46:50.518Z,99.90
2019-01-16T01:49:29.339Z,99.90
2019-01-16T01:52:06.181Z,99.90
2019-01-16T01:54:53.985Z,99.90
2019-01-16T01:57:41.562Z,99.90
2019-01-16T02:00:33.587Z,99.90
2019-01-16T02:03:25.408Z,99.90
2019-01-16T02:06:07.844Z,99.90
2019-01-16T02:08:47.279Z,99.90
2019-01-16T02:11:38.406Z,99.90
2019-01-16T02:14:38.516Z,99.90
2019-01-16T02:17:26.069Z,99.90
2019-01-16T02:20:08.538Z,99.90
2019-01-16T02:22:57.526Z,99.90
2019-01-16T02:26:04.778Z,99.90
2019-01-16T02:28:52.257Z,99.90
2019-01-16T02:31:32.767Z,99.90
2019-01-16T02:34:29.830Z,99.90
2019-01-16T02:37:21.701Z,99.90
2019-01-16T02:40:29.556Z,99.90
2019-01-16T02:43:21.325Z,99.90
2019-01-16T02:46:10.567Z,99.90
2019-01-16T02:48:59.650Z,99.90
2019-01-16T02:51:51.145Z,99.90
2019-01-16T02:54:34.056Z,99.90
2019-01-16T02:57:25.783Z,99.90
2019-01-16T03:00:07.767Z,99.90
2019-01-16T03:03:06.006Z,99.90
2019-01-16T03:05:48.667Z,99.90
2019-01-16T03:08:36.990Z,99.90
2019-01-16T03:11:24.871Z,99.90
2019-01-16T03:14:22.805Z,99.90
2019-01-16T03:17:21.030Z,99.90
2019-01-16T03:19:58.775Z,99.90
2019-01-16T03:22:57.170Z,99.90
2019-01-16T03:25:45.343Z,99.90
2019-01-16T03:28:28.461Z,99.90
2019-01-16T03:31:16.169Z,99.90
2019-01-16T03:33:53.638Z,99.90
2019-01-16T03:36:33.515Z,99.90
2019-01-16T03:39:13.050Z,99.90
2019-01-16T03:42:00.653Z,99.90
2019-01-16T03:44:50.492Z,99.90
2019-01-16T03:47:39.295Z,99.90
2019-01-16T03:50:40.541Z,99.90
2019-01-16T03:53:32.407Z,99.90
2019-01-16T03:56:23.186Z,99.90
2019-01-16T03:59:27.687Z,99.90
2019-01-16T04:02:15.470Z,99.90
2019-01-16T04:05:07.574Z,99.90
2019-01-16T04:07:55.135Z,99.90
2019-01-16T04:10:46.854Z,99.90
2019-01-16T04:13:51.629Z,99.90
2019-01-16T04:16:46.720Z,99.90
2019-01-16T04:19:26.758Z,99.90
2019-01-16T04:22:12.798Z,99.90
2019-01-16T04:25:03.322Z,99.90
2019-01-16T04:28:07.877Z,99.90
2019-01-16T04:30:57.249Z,99.90
2019-01-16T04:33:51.515Z,99.90
2019-01-16T04:36:52.361Z,99.90
2019-01-16T04:39:59.877Z,99.90
2019-01-16T04:42:52.087Z,99.90
2019-01-16T04:45:58.861Z,99.90
2019-01-16T04:48:37.682Z,99.90
2019-01-16T04:51:32.158Z,99.90
2019-01-16T04:54:21.295Z,99.90
2019-01-16T04:57:07.318Z,99.90
2019-01-16T04:59:59.452Z,99.90
2019-01-16T05:02:58.362Z,99.90
2019-01-16T05:05:47.238Z,99.90
2019-01-16T05:08:31.433Z,99.90
2019-01-16T05:11:10.210Z,99.90
2019-01-16T05:14:08.090Z,99.90
2019-01-16T05:17:00.229Z,99.90
2019-01-16T05:19:51.977Z,99.90
2019-01-16T05:22:49.891Z,99.90
2019-01-16T05:25:37.606Z,99.90
2019-01-16T05:28:34.657Z,99.90
2019-01-16T05:31:42.026Z,99.90
2019-01-16T05:34:49.370Z,99.90
2019-01-16T05:37:38.157Z,99.90
2019-01-16T05:40:30.769Z,99.90
2019-01-16T05:43:09.255Z,99.90
2019-01-16T05:45:58.043Z,99.90
2019-01-16T05:49:05.795Z,99.90
2019-01-16T05:51:53.645Z,99.90
2019-01-16T05:54:51.373Z,99.90
2019-01-16T05:57:38.865Z,99.90
2019-01-16T06:00:47.727Z,99.90
2019-01-16T06:03:36.819Z,99.90
2019-01-16T06:06:24.426Z,99.90
2019-01-16T06:09:17.203Z,99.90
2019-01-16T06:12:15.379Z,99.90
2019-01-16T06:15:17.098Z,99.90
2019-01-16T06:18:24.379Z,99.90
2019-01-16T06:21:11.860Z,99.90
2019-01-16T06:24:00.967Z,99.90
2019-01-16T06:27:02.304Z,99.90
2019-01-16T06:29:53.961Z,99.90
2019-01-16T06:32:51.749Z,99.90
2019-01-16T06:35:50.591Z,99.90
2019-01-16T06:38:29.017Z,99.90
2019-01-16T06:41:08.007Z,99.90
2019-01-16T06:43:52.850Z,99.90
2019-01-16T06:46:56.895Z,99.90
2019-01-16T06:49:44.702Z,99.90
2019-01-16T06:52:39.727Z,99.90
2019-01-16T06:55:27.542Z,99.90
2019-01-16T06:58:32.018Z,99.90
2019-01-16T07:01:19.794Z,99.90
2019-01-16T07:04:05.742Z,99.90
2019-01-16T07:07:06.673Z,99.90
2019-01-16T07:09:54.243Z,99.90
2019-01-16T07:12:55.550Z,99.90
2019-01-16T07:15:47.314Z,99.90
2019-01-16T07:18:26.511Z,99.90
2019-01-16T07:21:14.418Z,99.90
2019-01-16T07:23:50.870Z,99.90
2019-01-16T07:26:42.726Z,99.90
2019-01-16T07:29:24.725Z,99.90
2019-01-16T07:32:19.314Z,99.90
2019-01-16T07:35:23.448Z,99.90
2019-01-16T07:38:15.175Z,99.90
2019-01-16T07:41:11.099Z,99.90
2019-01-16T07:43:59.026Z,99.90
2019-01-16T07:46:44.394Z,99.90
2019-01-16T07:49:32.135Z,99.90
2019-01-16T07:52:15.435Z,99.90
2019-01-16T07:55:02.986Z,99.90
2019-01-16T07:57:50.463Z,99.90
2019-01-16T08:01:14.548Z,99.90
2019-01-16T08:04:02.188Z,99.90
2019-01-16T08:06:49.903Z,99.90
2019-01-16T08:09:51.186Z,99.90
2019-01-16T08:12:38.716Z,99.90
2019-01-16T08:15:22.493Z,99.90
2019-01-16T08:18:01.191Z,99.90
2019-01-16T08:20:46.042Z,99.90
2019-01-16T08:23:39.747Z,99.90
2019-01-16T08:26:27.598Z,99.90
2019-01-16T08:29:16.545Z,99.90
2019-01-16T08:32:11.898Z,99.90
2019-01-16T08:34:56.835Z,99.90
2019-01-16T08:37:53.263Z,99.90
2019-01-16T08:40:41.001Z,99.90
2019-01-16T08:43:39.154Z,99.90
2019-01-16T08:46:16.209Z,99.90
2019-01-16T08:49:05.086Z,99.90
2019-01-16T08:51:57.223Z,99.90
2019-01-16T08:54:49.615Z,99.90
2019-01-16T08:57:29.210Z,99.90
2019-01-16T09:00:11.940Z,99.90
2019-01-16T09:02:55.330Z,99.90
2019-01-16T09:05:39.744Z,99.90
2019-01-16T09:08:27.349Z,99.90
2019-01-16T09:11:15.037Z,99.90
2019-01-16T09:14:06.411Z,99.90
2019-01-16T09:16:52.085Z,99.90
2019-01-16T09:19:37.470Z,99.90
2019-01-16T09:22:35.407Z,99.90
2019-01-16T09:25:17.270Z,99.90
2019-01-16T09:28:15.782Z,99.90
2019-01-16T09:31:03.546Z,99.90
2019-01-16T09:33:52.326Z,99.90
2019-01-16T09:36:39.512Z,99.90
2019-01-16T09:39:29.314Z,99.90
2019-01-16T09:42:24.801Z,99.90
2019-01-16T09:45:13.647Z,99.90
2019-01-16T09:48:08.318Z,99.90
2019-01-16T09:50:58.115Z,99.90
2019-01-16T09:53:46.918Z,99.90
2019-01-16T09:56:51.134Z,99.90
2019-01-16T09:59:49.572Z,99.90
2019-01-16T10:02:50.508Z,99.90
2019-01-16T10:05:54.688Z,99.90
2019-01-16T10:08:39.998Z,99.90
2019-01-16T10:11:26.227Z,99.90
2019-01-16T10:14:03.997Z,99.90
2019-01-16T10:16:55.862Z,99.90
2019-01-16T10:19:43.730Z,99.90
2019-01-16T10:22:40.551Z,99.90
2019-01-16T10:25:26.327Z,99.90
2019-01-16T10:28:14.219Z,99.90
2019-01-16T10:31:11.307Z,99.90
2019-01-16T10:33:53.539Z,99.90
2019-01-16T10:36:41.126Z,99.90
2019-01-16T10:39:22.731Z,99.90
2019-01-16T10:42:14.612Z,99.90
2019-01-16T10:45:09.284Z,99.90
2019-01-16T10:47:44.621Z,99.90
2019-01-16T10:50:33.635Z,99.90
2019-01-16T10:53:21.295Z,99.90
2019-01-16T10:56:11.044Z,99.90
2019-01-16T10:58:58.675Z,99.90
2019-01-16T11:01:46.403Z,99.90
2019-01-16T11:04:34.342Z,99.90
2019-01-16T11:07:23.558Z,99.90
2019-01-16T11:10:03.958Z,99.90
2019-01-16T11:13:01.998Z,99.90
2019-01-16T11:15:58.398Z,99.90
2019-01-16T11:18:53.762Z,99.90
2019-01-16T11:21:46.595Z,99.90
2019-01-16T11:24:37.835Z,99.90
2019-01-16T11:27:20.086Z,99.90
2019-01-16T11:30:14.925Z,99.90
2019-01-16T11:33:02.767Z,99.90
2019-01-16T11:35:50.409Z,99.90
2019-01-16T11:38:57.407Z,99.90
2019-01-16T11:41:46.175Z,99.90
2019-01-16T11:44:53.058Z,99.90
2019-01-16T11:47:40.976Z,99.90
2019-01-16T11:50:35.867Z,99.90
2019-01-16T11:53:30.903Z,99.90
2019-01-16T11:56:18.390Z,99.90
2019-01-16T11:58:59.352Z,99.30
2019-01-16T12:01:46.482Z,99.30
2019-01-16T12:04:25.651Z,99.90
2019-01-16T12:07:09.769Z,99.10
2019-01-16T12:09:59.034Z,96.80
2019-01-16T12:12:57.629Z,98.10
2019-01-16T12:15:44.446Z,99.90
2019-01-16T12:18:34.710Z,97.90
2019-01-16T12:21:13.250Z,97.60
2019-01-16T12:23:54.339Z,96.80
2019-01-16T12:26:49.462Z,96.30
2019-01-16T12:29:44.431Z,95.20
2019-01-16T12:32:32.139Z,93.10
2019-01-16T12:35:15.942Z,91.80
2019-01-16T12:38:03.596Z,92.60
2019-01-16T12:40:51.366Z,92.00
2019-01-16T12:43:31.006Z,92.10
2019-01-16T12:46:18.591Z,88.80
2019-01-16T12:49:13.067Z,86.30
2019-01-16T12:51:50.421Z,86.00
2019-01-16T12:54:43.070Z,91.60
2019-01-16T12:57:27.528Z,90.60
2019-01-16T13:00:10.091Z,93.70
2019-01-16T13:03:07.846Z,93.40
2019-01-16T13:05:48.079Z,93.80
2019-01-16T13:08:38.760Z,92.90
2019-01-16T13:11:22.092Z,92.40
2019-01-16T13:14:30.023Z,92.30
2019-01-16T13:17:28.861Z,93.00
2019-01-16T13:20:18.146Z,94.30
2019-01-16T13:23:00.196Z,95.70
2019-01-16T13:25:49.323Z,96.10
2019-01-16T13:34:47.775Z,93.90
2019-01-16T13:37:35.622Z,95.30
2019-01-16T13:40:18.637Z,95.30
2019-01-16T13:43:19.424Z,97.20
2019-01-16T13:46:23.506Z,97.90
2019-01-16T13:49:18.261Z,99.40
2019-01-16T13:52:10.391Z,99.70
2019-01-16T13:54:57.855Z,99.90
2019-01-16T13:57:36.436Z,99.90
2019-01-16T14:00:21.616Z,99.90
2019-01-16T14:03:05.989Z,99.90
2019-01-16T14:05:53.503Z,99.90
2019-01-16T14:08:45.219Z,99.90
2019-01-16T14:11:43.359Z,99.90
2019-01-16T14:14:40.872Z,99.90
2019-01-16T14:17:42.510Z,99.90
2019-01-16T14:20:32.971Z,99.90
2019-01-16T14:23:17.629Z,99.90
2019-01-16T14:26:23.738Z,99.90
2019-01-16T14:29:25.171Z,99.90
2019-01-16T14:32:13.014Z,99.90
2019-01-16T14:35:02.156Z,99.90
2019-01-16T14:37:49.943Z,99.90
2019-01-16T14:40:37.560Z,99.90
2019-01-16T14:43:32.814Z,99.90
2019-01-16T14:46:21.816Z,99.90
2019-01-16T14:49:09.429Z,99.90
2019-01-16T14:52:04.222Z,99.90
2019-01-16T14:54:44.221Z,99.90
2019-01-16T14:57:31.946Z,99.90
2019-01-16T15:00:16.769Z,99.90
2019-01-16T15:03:15.297Z,99.90
2019-01-16T15:06:01.447Z,99.90
2019-01-16T15:08:49.406Z,99.90
2019-01-16T15:11:38.395Z,99.90
2019-01-16T15:14:20.859Z,99.90
2019-01-16T15:17:07.407Z,99.90
2019-01-16T15:19:51.006Z,99.90
2019-01-16T15:22:44.551Z,99.90
2019-01-16T15:25:29.850Z,99.90
2019-01-16T15:28:17.399Z,99.90
2019-01-16T15:31:15.028Z,99.90
2019-01-16T15:34:03.017Z,99.90
2019-01-16T15:36:58.174Z,99.90
2019-01-16T15:39:41.977Z,99.90
2019-01-16T15:42:29.682Z,99.90
2019-01-16T15:45:17.443Z,99.90
2019-01-16T15:48:05.135Z,99.90
2019-01-16T15:50:53.875Z,99.90
2019-01-16T15:53:44.362Z,99.90
2019-01-16T15:56:39.855Z,99.90
2019-01-16T15:59:31.887Z,99.90
2019-01-16T16:02:33.257Z,99.90
2019-01-16T16:05:31.585Z,99.90
2019-01-16T16:08:29.090Z,99.90
2019-01-16T16:11:12.941Z,99.90
2019-01-16T16:14:00.613Z,99.90
2019-01-16T16:16:47.951Z,99.90
2019-01-16T16:19:48.596Z,99.90
2019-01-16T16:22:46.863Z,99.90
2019-01-16T16:25:37.745Z,99.90
2019-01-16T16:28:35.542Z,99.90
2019-01-16T16:31:24.771Z,99.90
2019-01-16T16:34:29.105Z,99.90
2019-01-16T16:37:16.531Z,99.90
2019-01-16T16:40:04.054Z,99.90
2019-01-16T16:42:53.334Z,99.90
2019-01-16T16:45:57.658Z,99.90
2019-01-16T16:49:02.036Z,99.90
2019-01-16T16:51:44.359Z,99.90
2019-01-16T16:54:34.046Z,99.90
2019-01-16T16:57:28.821Z,99.90
2019-01-16T17:00:10.003Z,99.90
2019-01-16T17:03:04.843Z,99.90
2019-01-16T17:05:56.838Z,99.90
2019-01-16T17:08:45.273Z,99.90
2019-01-16T17:11:32.722Z,99.90
2019-01-16T17:14:30.678Z,99.90
2019-01-16T17:17:25.832Z,99.90
2019-01-16T17:20:13.509Z,99.90
2019-01-16T17:23:11.475Z,99.90
2019-01-16T17:26:03.488Z,99.90
2019-01-16T17:28:41.354Z,99.90
2019-01-16T17:31:30.769Z,99.90
2019-01-16T17:34:19.739Z,99.90
2019-01-16T17:37:06.753Z,99.90
2019-01-16T17:39:54.546Z,99.90
2019-01-16T17:42:46.532Z,99.90
2019-01-16T17:45:41.463Z,99.90
2019-01-16T17:48:33.498Z,99.90
2019-01-16T17:51:22.050Z,99.90
2019-01-16T17:54:17.927Z,99.90
2019-01-16T17:57:01.206Z,99.90
2019-01-16T18:00:05.142Z,99.90
2019-01-16T18:02:54.150Z,99.90
2019-01-16T18:05:39.101Z,99.90
2019-01-16T18:08:28.020Z,99.90
2019-01-16T18:11:15.732Z,99.90
2019-01-16T18:14:02.155Z,99.90
2019-01-16T18:16:49.980Z,99.90
2019-01-16T18:19:44.834Z,99.90
2019-01-16T18:22:36.590Z,99.90
2019-01-16T18:25:19.019Z,99.90
2019-01-16T18:28:06.585Z,99.90
2019-01-16T18:30:54.367Z,99.90
2019-01-16T18:33:43.352Z,99.90
2019-01-16T18:36:36.335Z,99.90
2019-01-16T18:39:25.626Z,99.90
2019-01-16T18:42:13.778Z,99.90
2019-01-16T18:45:05.431Z,99.90
2019-01-16T18:47:56.287Z,99.90
2019-01-16T18:50:55.051Z,99.90
2019-01-16T18:53:50.250Z,99.90
2019-01-16T18:56:33.590Z,99.90
2019-01-16T18:59:22.801Z,99.90
2019-01-16T19:02:10.612Z,99.90
2019-01-16T19:05:17.859Z,99.90
2019-01-16T19:08:08.186Z,99.90
2019-01-16T19:11:12.641Z,99.90
2019-01-16T19:14:16.855Z,99.90
2019-01-16T19:17:03.336Z,99.90
2019-01-16T19:19:55.108Z,99.90
2019-01-16T19:22:35.159Z,99.90
2019-01-16T19:25:39.731Z,99.90
2019-01-16T19:28:37.431Z,99.90
2019-01-16T19:31:25.588Z,99.90
2019-01-16T19:34:08.905Z,99.90
2019-01-16T19:37:12.885Z,99.90
2019-01-16T19:40:00.899Z,99.90
2019-01-16T19:42:49.571Z,99.90
2019-01-16T19:45:50.788Z,99.90
2019-01-16T19:48:35.845Z,99.90
2019-01-16T19:51:23.664Z,99.90
2019-01-16T19:54:12.889Z,99.90
2019-01-16T19:57:01.446Z,99.90
2019-01-16T19:59:51.918Z,99.90
2019-01-16T20:02:52.906Z,99.90
2019-01-16T20:05:56.908Z,99.90
2019-01-16T20:08:53.214Z,99.90
2019-01-16T20:11:40.765Z,99.90
2019-01-16T20:14:23.417Z,99.90
2019-01-16T20:17:11.134Z,99.90
2019-01-16T20:20:03.234Z,99.90
2019-01-16T20:22:53.438Z,99.90
2019-01-16T20:25:38.816Z,99.90
2019-01-16T20:28:24.762Z,99.90
2019-01-16T20:31:12.434Z,99.90
2019-01-16T20:34:04.253Z,99.90
2019-01-16T20:36:56.970Z,99.90
2019-01-16T20:39:51.293Z,99.90
2019-01-16T20:42:31.474Z,99.90
2019-01-16T20:45:20.261Z,99.90
2019-01-16T20:48:01.038Z,99.90
2019-01-16T20:50:47.168Z,99.90
2019-01-16T20:53:32.005Z,99.90
2019-01-16T20:56:20.447Z,99.90
2019-01-16T20:59:04.493Z,99.90
2019-01-16T21:01:45.470Z,99.90
2019-01-16T21:04:41.686Z,99.90
2019-01-16T21:07:34.101Z,99.90
2019-01-16T21:10:24.687Z,99.90
2019-01-16T21:13:32.022Z,99.90
2019-01-16T21:16:17.277Z,99.90
2019-01-16T21:19:24.655Z,99.90
2019-01-16T21:22:19.890Z,99.90
2019-01-16T21:25:24.489Z,99.90
2019-01-16T21:28:07.060Z,99.90
2019-01-16T21:30:54.930Z,99.90
2019-01-16T21:33:38.342Z,99.90
2019-01-16T21:36:23.969Z,99.90
2019-01-16T21:39:06.457Z,99.90
2019-01-16T21:42:04.999Z,99.90
2019-01-16T21:44:52.482Z,99.90
2019-01-16T21:47:43.780Z,99.90
2019-01-16T21:50:38.871Z,99.90
2019-01-16T21:53:33.839Z,99.90
2019-01-16T21:56:29.814Z,99.90
2019-01-16T21:59:22.731Z,99.90
2019-01-16T22:02:14.879Z,99.90
2019-01-16T22:05:03.901Z,99.90
2019-01-16T22:07:51.679Z,99.90
2019-01-16T22:10:43.422Z,99.90
2019-01-16T22:13:35.091Z,99.90
2019-01-16T22:16:39.307Z,99.90
2019-01-16T22:19:32.454Z,99.90
2019-01-16T22:22:18.820Z,99.90
2019-01-16T22:25:10.608Z,99.90
2019-01-16T22:27:58.317Z,99.90
2019-01-16T22:30:44.354Z,99.90
2019-01-16T22:33:36.393Z,99.90
2019-01-16T22:36:22.494Z,99.90
2019-01-16T22:39:04.553Z,99.90
2019-01-16T22:41:52.701Z,99.90
2019-01-16T22:44:40.586Z,99.90
2019-01-16T22:47:28.151Z,99.90
2019-01-16T22:50:09.641Z,99.90
2019-01-16T22:52:57.797Z,99.90
2019-01-16T22:55:52.571Z,99.90
2019-01-16T22:58:56.842Z,99.90
2019-01-16T23:01:48.586Z,99.90
2019-01-16T23:04:30.356Z,99.90
2019-01-16T23:07:19.298Z,99.90
2019-01-16T23:10:11.285Z,99.90
2019-01-16T23:13:06.211Z,99.90
2019-01-16T23:16:04.784Z,99.90
2019-01-16T23:19:05.978Z,99.90
2019-01-16T23:22:06.574Z,99.90
2019-01-16T23:24:47.357Z,99.90
2019-01-16T23:27:40.423Z,99.90
2019-01-16T23:30:34.602Z,99.90
2019-01-16T23:33:29.941Z,99.90
2019-01-16T23:36:30.825Z,99.90
2019-01-16T23:39:18.678Z,99.90
2019-01-16T23:42:10.441Z,99.90
2019-01-16T23:45:00.470Z,99.90
2019-01-16T23:47:44.477Z,99.90
2019-01-16T23:50:35.048Z,99.90
2019-01-16T23:53:40.295Z,99.90
2019-01-16T23:56:40.026Z,99.90
2019-01-16T23:59:32.164Z,99.90
